Apalachicola, FL

10:39 AM EDT on July 23, 2016 (GMT -0400)
Apalachicola Municipal | | Change Station

Elev 20 ft 29.73 °N, 85.03 °W | Updated 46 minutes ago

Partly Cloudy
Partly Cloudy
86 °F
Feels Like 101 °F
N
7
Wind Variable Wind from East

Today
High -- | Low -- °F
--% Chance of Precip.
Yesterday
High -- | Low -- °F
Precip. -- in
Pressure 30.03 in
Visibility 10.0 miles
Clouds Few 1700 ft
Heat Index 101 °F
Dew Point 80 °F
Humidity 82%
Rainfall 0.00 in
Snow Depth Not available.
6:54 AM 8:38 PM
Waning Gibbous, 85% visible
METAR KAAF 231353Z AUTO 09006KT 10SM FEW017 30/27 A3003 RMK AO2 SLP167 T03000267
Pressure 30.03 in
Visibility 10.0 miles
Clouds Few 1700 ft
Heat Index 101 °F
Dew Point 80 °F
Humidity 82%
Rainfall 0.00 in
Snow Depth Not available.
6:54 AM 8:38 PM
Waning Gibbous, 85% visible
METAR KAAF 231353Z AUTO 09006KT 10SM FEW017 30/27 A3003 RMK AO2 SLP167 T03000267

10-Day Weather Forecast

Almanac

Astronomy

Jul. 23, 2016 Rise Set
Actual Time
Civil Twilight
Nautical Twilight
Astronomical Twilight
Moon
Length of Visible Light
Length of Day
Tomorrow will be .
, % of the Moon is Illuminated

Today's Extremes

State Highs State Lows

Community

WunderPhotos

Upload Photos

1,926,825 photos uploaded!

WunderBlog® & News

Nearby

Air Quality

  Air Quality AQ Index Pollutant
Not available.

Snow Depth

Station Depth Elevation

Earthquake Activity

City Distance Mag. Time & Date
Minimum magnitude displayed is 2.5.

Coastal Water Temperatures

Place Temperature

Stations

Nearby Weather Stations

Station Location Temp. Windchill Dew Point Humidity Wind Precip. Elev Updated Type
                   

Watches & Warnings

There are currently no watches in effect.